^^
Saratoga-Weather Station Historical Data
Daily Summary for June 14, 2021 Units:  English    Metric   Both
Daily Weekly Monthly Yearly Custom
  High: Low: Average:
Temperature: 71.4 °F 56.5 °F 63.9 °F
Dew Point: 65.3 °F 54.5 °F 59.7 °F
Humidity: 94% 76% 87%
Wind Speed: 4mph 0mph 0.3mph
Wind Gust: 6mph - -
Wind- - ESE
Pressure: 30 in 29.9 in -
Precipitation: 0 in    
Historical Graphs
 
 
Tabular Data for June 14, 2021
Time Temperature Dew Point Pressure Wind Wind Speed Wind Gust Humidity Rainfall Rate (Hourly) solar
00:02 61 °F 57.7 °F 30 in Calm     89% 0 in 0 W/m2
00:07 61 °F 57.7 °F 30 in Calm     89% 0 in 0 W/m2
00:12 61 °F 57.7 °F 30 in Calm   2 mph 89% 0 in 0 W/m2
00:17 60.8 °F 57.6 °F 30 in Calm     89% 0 in 0 W/m2
00:22 60.6 °F 57.4 °F 30 in SE 0.9 mph 2 mph 89% 0 in 0 W/m2
00:27 60.6 °F 57.4 °F 30 in Calm     89% 0 in 0 W/m2
00:32 60.4 °F 57.2 °F 30 in Calm   2 mph 89% 0 in 0 W/m2
00:37 60.4 °F 57.2 °F 30 in Calm     89% 0 in 0 W/m2
00:42 60.3 °F 57.4 °F 30 in Calm     90% 0 in 0 W/m2
00:47 60.3 °F 57 °F 30 in Calm     89% 0 in 0 W/m2
00:52 60.1 °F 56.8 °F 30 in Calm     89% 0 in 0 W/m2
00:57 59.9 °F 57 °F 30 in Calm     90% 0 in 0 W/m2
01:02 59.7 °F 56.8 °F 30 in Calm     90% 0 in 0 W/m2
01:07 59.7 °F 56.8 °F 30 in Calm     90% 0 in 0 W/m2
01:12 59.5 °F 56.7 °F 30 in Calm     90% 0 in 0 W/m2
01:17 59.4 °F 56.5 °F 30 in Calm     90% 0 in 0 W/m2
01:22 59.4 °F 56.7 °F 30 in Calm     91% 0 in 0 W/m2
01:27 59.2 °F 56.5 °F 30 in Calm     91% 0 in 0 W/m2
01:32 59.2 °F 56.5 °F 30 in Calm     91% 0 in 0 W/m2
01:37 59.2 °F 56.5 °F 30 in Calm     91% 0 in 0 W/m2
01:42 58.8 °F 56.1 °F 30 in Calm     91% 0 in 0 W/m2
01:47 58.8 °F 56.1 °F 30 in Calm     91% 0 in 0 W/m2
01:52 58.6 °F 55.9 °F 30 in Calm     91% 0 in 0 W/m2
01:57 58.6 °F 55.9 °F 29.9 in Calm     91% 0 in 0 W/m2
02:02 58.5 °F 56.1 °F 29.9 in Calm     92% 0 in 0 W/m2
02:07 58.5 °F 56.1 °F 29.9 in Calm     92% 0 in 0 W/m2
02:12 58.5 °F 56.1 °F 29.9 in Calm     92% 0 in 0 W/m2
02:17 58.3 °F 55.9 °F 29.9 in Calm     92% 0 in 0 W/m2
02:27 58.1 °F 55.8 °F 29.9 in Calm     92% 0 in 0 W/m2
02:32 57.9 °F 55.6 °F 29.9 in Calm     92% 0 in 0 W/m2
02:37 57.9 °F 55.6 °F 29.9 in Calm     92% 0 in 0 W/m2
02:42 57.7 °F 55.4 °F 29.9 in Calm     92% 0 in 0 W/m2
02:47 57.7 °F 55.8 °F 29.9 in Calm     93% 0 in 0 W/m2
02:52 57.7 °F 55.8 °F 29.9 in Calm     93% 0 in 0 W/m2
02:57 57.6 °F 55.6 °F 29.9 in Calm     93% 0 in 0 W/m2
03:02 57.6 °F 55.6 °F 29.9 in Calm     93% 0 in 0 W/m2
03:07 57.6 °F 55.6 °F 29.9 in Calm     93% 0 in 0 W/m2
03:12 57.6 °F 55.6 °F 29.9 in Calm     93% 0 in 0 W/m2
03:18 57.6 °F 55.6 °F 29.9 in Calm     93% 0 in 0 W/m2
03:23 57.6 °F 55.6 °F 29.9 in Calm     93% 0 in 0 W/m2
03:28 57.6 °F 55.6 °F 29.9 in Calm     93% 0 in 0 W/m2
03:33 57.6 °F 55.6 °F 29.9 in Calm     93% 0 in 0 W/m2
03:38 57.6 °F 55.6 °F 29.9 in Calm     93% 0 in 0 W/m2
03:43 57.6 °F 55.6 °F 29.9 in Calm     93% 0 in 0 W/m2
03:48 57.6 °F 55.6 °F 29.9 in Calm     93% 0 in 0 W/m2
03:53 57.6 °F 55.6 °F 29.9 in Calm     93% 0 in 0 W/m2
03:58 57.7 °F 55.8 °F 29.9 in Calm   1 mph 93% 0 in 0 W/m2
04:03 57.7 °F 55.8 °F 29.9 in Calm     93% 0 in 0 W/m2
04:08 57.7 °F 55.8 °F 29.9 in Calm     93% 0 in 0 W/m2
04:13 57.7 °F 55.8 °F 29.9 in Calm     93% 0 in 0 W/m2
04:18 57.9 °F 55.9 °F 29.9 in Calm     93% 0 in 0 W/m2
04:23 57.9 °F 55.6 °F 29.9 in Calm     92% 0 in 0 W/m2
04:28 57.9 °F 55.6 °F 29.9 in Calm     92% 0 in 0 W/m2
04:33 57.9 °F 55.6 °F 29.9 in Calm     92% 0 in 0 W/m2
04:38 57.7 °F 55.2 °F 29.9 in Calm     91% 0 in 0 W/m2
04:43 57.7 °F 55.2 °F 29.9 in Calm     91% 0 in 0 W/m2
04:48 57.6 °F 55.2 °F 29.9 in Calm     92% 0 in 0 W/m2
04:53 57.6 °F 55.2 °F 29.9 in Calm     92% 0 in 0 W/m2
04:58 57.6 °F 55.2 °F 29.9 in Calm     92% 0 in 0 W/m2
05:03 57.6 °F 55.2 °F 29.9 in Calm     92% 0 in 0 W/m2
05:08 57.4 °F 55 °F 29.9 in Calm     92% 0 in 0 W/m2
05:13 57.2 °F 54.9 °F 29.9 in Calm     92% 0 in 0 W/m2
05:18 57 °F 54.7 °F 29.9 in Calm     92% 0 in 0 W/m2
05:23 57 °F 54.7 °F 29.9 in Calm     92% 0 in 0 W/m2
05:28 57 °F 55 °F 29.9 in Calm     93% 0 in 0 W/m2
05:33 57 °F 55 °F 29.9 in Calm     93% 0 in 0 W/m2
05:38 56.8 °F 54.9 °F 29.9 in Calm     93% 0 in 0 W/m2
05:43 56.8 °F 54.9 °F 29.9 in Calm     93% 0 in 0 W/m2
05:48 56.8 °F 54.9 °F 29.9 in Calm   1 mph 93% 0 in 0 W/m2
05:53 56.7 °F 54.7 °F 29.9 in Calm     93% 0 in 0 W/m2
05:58 56.7 °F 54.7 °F 29.9 in Calm     93% 0 in 0 W/m2
06:03 56.7 °F 54.7 °F 29.9 in Calm     93% 0 in 0 W/m2
06:08 56.7 °F 54.7 °F 29.9 in Calm     93% 0 in 0 W/m2
06:13 56.7 °F 55 °F 29.9 in SE 0.9 mph 1 mph 94% 0 in 0 W/m2
06:18 56.7 °F 55 °F 29.9 in SE 0.9 mph 1 mph 94% 0 in 0 W/m2
06:23 56.7 °F 55 °F 29.9 in SE 0.9 mph 1 mph 94% 0 in 0 W/m2
06:28 56.8 °F 55.2 °F 29.9 in Calm   1 mph 94% 0 in 0 W/m2
06:33 56.8 °F 54.9 °F 29.9 in Calm     93% 0 in 0 W/m2
06:38 56.8 °F 54.9 °F 29.9 in Calm   1 mph 93% 0 in 0 W/m2
06:43 56.7 °F 54.7 °F 29.9 in Calm     93% 0 in 0 W/m2
06:48 56.7 °F 54.7 °F 29.9 in Calm   1 mph 93% 0 in 0 W/m2
06:53 56.7 °F 54.7 °F 29.9 in Calm     93% 0 in 0 W/m2
06:58 56.7 °F 54.7 °F 29.9 in Calm     93% 0 in 0 W/m2
07:03 56.7 °F 54.7 °F 29.9 in SE 0.9 mph 1 mph 93% 0 in 0 W/m2
07:08 56.7 °F 54.7 °F 29.9 in Calm     93% 0 in 0 W/m2
07:13 56.7 °F 54.7 °F 29.9 in Calm     93% 0 in 0 W/m2
07:18 56.7 °F 55 °F 29.9 in Calm     94% 0 in 7 W/m2
07:23 56.7 °F 55 °F 29.9 in Calm     94% 0 in 9 W/m2
07:28 56.5 °F 54.9 °F 29.9 in Calm     94% 0 in 11 W/m2
07:33 56.5 °F 54.5 °F 29.9 in Calm   1 mph 93% 0 in 12 W/m2
07:38 56.5 °F 54.5 °F 29.9 in Calm   2 mph 93% 0 in 16 W/m2
07:43 56.5 °F 54.5 °F 29.9 in Calm     93% 0 in 18 W/m2
07:48 56.5 °F 54.9 °F 29.9 in Calm   2 mph 94% 0 in 19 W/m2
07:53 56.5 °F 54.5 °F 29.9 in Calm     93% 0 in 21 W/m2
07:58 56.5 °F 54.9 °F 29.9 in Calm     94% 0 in 19 W/m2
08:03 56.5 °F 54.9 °F 29.9 in Calm     94% 0 in 21 W/m2
08:08 56.5 °F 54.9 °F 29.9 in Calm     94% 0 in 23 W/m2
08:13 56.5 °F 54.9 °F 29.9 in Calm     94% 0 in 26 W/m2
08:18 56.5 °F 54.9 °F 29.9 in Calm     94% 0 in 32 W/m2
08:23 56.7 °F 55 °F 29.9 in Calm     94% 0 in 44 W/m2
08:28 56.7 °F 55 °F 29.9 in Calm     94% 0 in 77 W/m2
08:33 56.8 °F 55.2 °F 29.9 in Calm     94% 0 in 114 W/m2
08:38 57 °F 55.2 °F 29.9 in Calm     94% 0 in 144 W/m2
08:43 57.4 °F 55.6 °F 29.9 in Calm     94% 0 in 169 W/m2
08:48 57.7 °F 55.9 °F 29.9 in Calm     94% 0 in 102 W/m2
08:53 58.3 °F 56.3 °F 29.9 in Calm     93% 0 in 116 W/m2
08:58 58.8 °F 56.5 °F 29.9 in Calm     92% 0 in 248 W/m2
09:03 59.5 °F 56.8 °F 29.9 in Calm     91% 0 in 207 W/m2
09:08 60.1 °F 57.2 °F 29.9 in NNE 0.9 mph 1 mph 90% 0 in 186 W/m2
09:13 60.6 °F 57 °F 29.9 in NE 0.9 mph 2 mph 88% 0 in 118 W/m2
09:18 61 °F 56.8 °F 29.9 in Calm   3 mph 86% 0 in 139 W/m2
09:23 61.3 °F 56.8 °F 29.9 in Calm   1 mph 85% 0 in 127 W/m2
09:28 61.5 °F 57 °F 29.9 in SE 2 mph 4 mph 85% 0 in 239 W/m2
09:33 61.9 °F 57.4 °F 29.9 in ENE 2.9 mph 3 mph 85% 0 in 339 W/m2
09:38 62.2 °F 57.4 °F 29.9 in Calm   4 mph 84% 0 in 346 W/m2
09:43 62.8 °F 57.9 °F 29.9 in SE 0.9 mph 3 mph 84% 0 in 188 W/m2
09:48 63 °F 57.7 °F 29.9 in ENE 2.9 mph 4 mph 83% 0 in 127 W/m2
09:53 63 °F 57.7 °F 29.9 in Calm   2 mph 83% 0 in 148 W/m2
09:58 63 °F 57.7 °F 29.9 in Calm   2 mph 83% 0 in 243 W/m2
10:03 63.1 °F 57.9 °F 29.9 in NE 2 mph 3 mph 83% 0 in 415 W/m2
10:08 63.5 °F 58.3 °F 29.9 in NE 0.9 mph 2 mph 83% 0 in 316 W/m2
10:13 63.9 °F 58.3 °F 29.9 in Calm   3 mph 82% 0 in 339 W/m2
10:18 64.2 °F 58.3 °F 29.9 in NNE 0.9 mph 2 mph 81% 0 in 378 W/m2
10:23 64.6 °F 58.3 °F 29.9 in Calm   2 mph 80% 0 in 271 W/m2
10:28 64.6 °F 58.3 °F 29.9 in East 0.9 mph 3 mph 80% 0 in 229 W/m2
10:33 64.6 °F 58.3 °F 29.9 in NE 2 mph 2 mph 80% 0 in 253 W/m2
10:38 64.8 °F 58.8 °F 29.9 in NE 0.9 mph 2 mph 81% 0 in 327 W/m2
10:43 64.9 °F 58.6 °F 29.9 in NE 4 mph 4 mph 80% 0 in 396 W/m2
10:48 65.5 °F 59.5 °F 29.9 in Calm   2 mph 81% 0 in 462 W/m2
10:54 66 °F 59.4 °F 29.9 in Calm   1 mph 79% 0 in 322 W/m2
10:59 66.6 °F 59.5 °F 29.9 in East 4 mph 4 mph 78% 0 in 220 W/m2
11:04 66.7 °F 59.7 °F 29.9 in Calm   4 mph 78% 0 in 176 W/m2
11:09 66.6 °F 59.5 °F 29.9 in Calm   2 mph 78% 0 in 151 W/m2
11:14 66.4 °F 59.4 °F 29.9 in NE 0.9 mph 3 mph 78% 0 in 139 W/m2
11:19 66.2 °F 59.5 °F 29.9 in Calm     79% 0 in 134 W/m2
11:24 66.4 °F 59.7 °F 29.9 in Calm   3 mph 79% 0 in 123 W/m2
11:29 66.4 °F 60.1 °F 29.9 in Calm     80% 0 in 113 W/m2
11:34 66.4 °F 60.1 °F 29.9 in Calm   2 mph 80% 0 in 105 W/m2
11:39 66.4 °F 60.1 °F 29.9 in Calm     80% 0 in 102 W/m2
11:44 66.4 °F 60.8 °F 29.9 in Calm   1 mph 82% 0 in 100 W/m2
11:49 66.4 °F 60.4 °F 29.9 in Calm     81% 0 in 100 W/m2
11:54 66.4 °F 59.7 °F 29.9 in Calm   1 mph 79% 0 in 107 W/m2
11:59 66.6 °F 60.6 °F 29.9 in Calm   1 mph 81% 0 in 114 W/m2
12:04 66.6 °F 60.6 °F 29.9 in Calm     81% 0 in 116 W/m2
12:09 66.7 °F 60.8 °F 29.9 in NE 0.9 mph 1 mph 81% 0 in 107 W/m2
12:14 66.7 °F 60.8 °F 29.9 in Calm     81% 0 in 104 W/m2
12:19 66.7 °F 60.8 °F 29.9 in West 2 mph 2 mph 81% 0 in 105 W/m2
12:24 66.6 °F 60.6 °F 29.9 in NNW 2 mph 3 mph 81% 0 in 116 W/m2
12:29 66.6 °F 61 °F 29.9 in ENE 2 mph 2 mph 82% 0 in 146 W/m2
12:34 66.6 °F 60.6 °F 29.9 in WNW 0.9 mph 3 mph 81% 0 in 195 W/m2
12:39 66.7 °F 61 °F 29.9 in WNW 0.9 mph 2 mph 82% 0 in 262 W/m2
12:44 67.1 °F 61.2 °F 29.9 in WNW 0.9 mph 3 mph 81% 0 in 265 W/m2
12:49 67.3 °F 61.2 °F 29.9 in East 0.9 mph 3 mph 81% 0 in 279 W/m2
12:54 67.6 °F 61.2 °F 29.9 in Calm   1 mph 80% 0 in 359 W/m2
12:59 68 °F 61.5 °F 29.9 in Calm   3 mph 80% 0 in 422 W/m2
13:04 68.4 °F 61.5 °F 29.9 in Calm   1 mph 79% 0 in 311 W/m2
13:09 68.7 °F 61.9 °F 29.9 in East 2.9 mph 4 mph 79% 0 in 264 W/m2
13:14 69.1 °F 62.2 °F 29.9 in East 0.9 mph 2 mph 79% 0 in 230 W/m2
13:19 69.3 °F 62.4 °F 29.9 in Calm   4 mph 79% 0 in 221 W/m2
13:24 69.4 °F 61.9 °F 29.9 in NE 0.9 mph 3 mph 77% 0 in 213 W/m2
13:29 69.6 °F 62.4 °F 29.9 in ENE 2.9 mph 4 mph 78% 0 in 169 W/m2
13:34 69.6 °F 62.1 °F 29.9 in Calm   1 mph 77% 0 in 204 W/m2
13:39 69.6 °F 62.4 °F 29.9 in NE 2 mph 2 mph 78% 0 in 250 W/m2
13:44 69.6 °F 62.8 °F 29.9 in SE 0.9 mph 3 mph 79% 0 in 237 W/m2
13:49 69.6 °F 62.4 °F 29.9 in Calm   3 mph 78% 0 in 229 W/m2
13:54 69.8 °F 62.2 °F 29.9 in ENE 2 mph 4 mph 77% 0 in 380 W/m2
13:59 70 °F 62.4 °F 29.9 in NE 0.9 mph 3 mph 77% 0 in 304 W/m2
14:04 70.2 °F 62.2 °F 29.9 in East 0.9 mph 3 mph 76% 0 in 204 W/m2
14:09 70.2 °F 62.6 °F 29.9 in ESE 2.9 mph 3 mph 77% 0 in 158 W/m2
14:14 70.2 °F 62.2 °F 29.9 in NNE 0.9 mph 3 mph 76% 0 in 144 W/m2
14:19 70 °F 62.1 °F 29.9 in Calm   3 mph 76% 0 in 148 W/m2
14:24 70 °F 62.4 °F 29.9 in Calm   1 mph 77% 0 in 183 W/m2
14:29 70 °F 62.1 °F 29.9 in Calm     76% 0 in 221 W/m2
14:34 70.2 °F 62.6 °F 29.9 in ESE 0.9 mph 1 mph 77% 0 in 213 W/m2
14:39 70.3 °F 62.8 °F 29.9 in Calm   1 mph 77% 0 in 185 W/m2
14:44 70.3 °F 63.1 °F 29.9 in ESE 0.9 mph 2 mph 78% 0 in 174 W/m2
14:49 70.2 °F 62.6 °F 29.9 in Calm   2 mph 77% 0 in 151 W/m2
14:54 70.2 °F 63.3 °F 29.9 in Calm   2 mph 79% 0 in 202 W/m2
14:59 70.2 °F 63.3 °F 29.9 in Calm     79% 0 in 236 W/m2
15:04 70.3 °F 63.1 °F 29.9 in East 0.9 mph 3 mph 78% 0 in 229 W/m2
15:09 70.3 °F 62.8 °F 29.9 in ENE 0.9 mph 3 mph 77% 0 in 223 W/m2
15:14 70.5 °F 63 °F 29.9 in ESE 0.9 mph 3 mph 77% 0 in 185 W/m2
15:19 70.5 °F 63 °F 29.9 in Calm   3 mph 77% 0 in 181 W/m2
15:24 70.7 °F 63.1 °F 29.9 in Calm   1 mph 77% 0 in 216 W/m2
15:29 70.9 °F 63.3 °F 29.9 in ENE 0.9 mph 3 mph 77% 0 in 227 W/m2
15:34 70.9 °F 63.3 °F 29.9 in ESE 0.9 mph 2 mph 77% 0 in 239 W/m2
15:39 70.9 °F 63.3 °F 29.9 in South 0.9 mph 2 mph 77% 0 in 213 W/m2
15:44 70.9 °F 63.3 °F 29.9 in NE 0.9 mph 1 mph 77% 0 in 204 W/m2
15:49 71.1 °F 63.5 °F 29.9 in SSE 0.9 mph 4 mph 77% 0 in 229 W/m2
15:54 71.1 °F 63.1 °F 29.9 in Calm   6 mph 76% 0 in 230 W/m2
15:59 71.1 °F 63.5 °F 29.9 in NNW 0.9 mph 3 mph 77% 0 in 207 W/m2
16:04 71.2 °F 63.3 °F 29.9 in ENE 2 mph 6 mph 76% 0 in 158 W/m2
16:09 71.1 °F 63.5 °F 29.9 in ENE 0.9 mph 2 mph 77% 0 in 155 W/m2
16:14 71.1 °F 63.5 °F 29.9 in SW 2 mph 3 mph 77% 0 in 128 W/m2
16:19 71.1 °F 63.5 °F 29.9 in SE 0.9 mph 2 mph 77% 0 in 104 W/m2
16:24 70.9 °F 63.7 °F 29.9 in ENE 2 mph 4 mph 78% 0 in 121 W/m2
16:29 70.9 °F 63.7 °F 29.9 in East 2.9 mph 5 mph 78% 0 in 130 W/m2
16:34 70.9 °F 63.7 °F 29.9 in Calm     78% 0 in 113 W/m2
16:39 70.9 °F 63.7 °F 29.9 in NE 0.9 mph 2 mph 78% 0 in 83 W/m2
16:44 71.1 °F 64.2 °F 29.9 in Calm     79% 0 in 74 W/m2
16:49 71.1 °F 64.2 °F 29.9 in Calm     79% 0 in 76 W/m2
16:54 71.1 °F 64.6 °F 29.9 in Calm     80% 0 in 97 W/m2
16:59 71.1 °F 64.9 °F 29.9 in Calm   1 mph 81% 0 in 104 W/m2
17:04 71.1 °F 64.6 °F 29.9 in Calm     80% 0 in 98 W/m2
17:09 71.2 °F 64.8 °F 29.9 in ESE 0.9 mph 1 mph 80% 0 in 100 W/m2
17:14 71.2 °F 64.4 °F 29.9 in Calm   1 mph 79% 0 in 105 W/m2
17:19 71.2 °F 64.4 °F 29.9 in Calm   1 mph 79% 0 in 95 W/m2
17:24 71.4 °F 64.6 °F 29.9 in Calm     79% 0 in 88 W/m2
17:29 71.4 °F 64.2 °F 29.9 in Calm     78% 0 in 67 W/m2
17:34 71.4 °F 64.9 °F 29.9 in SE 2 mph 2 mph 80% 0 in 76 W/m2
17:39 71.4 °F 64.6 °F 29.9 in SSE 0.9 mph 2 mph 79% 0 in 84 W/m2
17:44 71.4 °F 64.9 °F 29.9 in Calm     80% 0 in 83 W/m2
17:49 71.2 °F 64.8 °F 29.9 in Calm   1 mph 80% 0 in 84 W/m2
17:54 71.2 °F 64.8 °F 29.9 in Calm   1 mph 80% 0 in 88 W/m2
17:59 71.2 °F 65.1 °F 29.9 in Calm     81% 0 in 67 W/m2
18:04 71.2 °F 64.8 °F 29.9 in Calm   1 mph 80% 0 in 56 W/m2
18:09 71.2 °F 64.8 °F 29.9 in Calm   1 mph 80% 0 in 54 W/m2
18:14 71.2 °F 64.8 °F 29.9 in Calm     80% 0 in 67 W/m2
18:19 71.1 °F 64.9 °F 29.9 in Calm   1 mph 81% 0 in 69 W/m2
18:24 71.1 °F 64.9 °F 29.9 in Calm     81% 0 in 58 W/m2
18:29 70.9 °F 65.1 °F 29.9 in East 0.9 mph 1 mph 82% 0 in 54 W/m2
18:34 70.9 °F 65.1 °F 29.9 in Calm     82% 0 in 69 W/m2
18:39 70.7 °F 64.9 °F 29.9 in Calm     82% 0 in 74 W/m2
18:44 70.5 °F 64.8 °F 29.9 in Calm     82% 0 in 60 W/m2
18:49 70.7 °F 65.3 °F 29.9 in Calm     83% 0 in 53 W/m2
18:54 70.5 °F 65.1 °F 29.9 in Calm     83% 0 in 49 W/m2
18:59 70.5 °F 65.1 °F 29.9 in Calm     83% 0 in 40 W/m2
19:04 70.3 °F 64.9 °F 29.9 in Calm     83% 0 in 33 W/m2
19:09 70.2 °F 65.1 °F 29.9 in Calm     84% 0 in 30 W/m2
19:14 70 °F 64.9 °F 29.9 in Calm     84% 0 in 26 W/m2
19:19 69.4 °F 64.4 °F 29.9 in Calm     84% 0 in 23 W/m2
19:24 69.3 °F 64.6 °F 29.9 in Calm     85% 0 in 14 W/m2
19:29 69.1 °F 64.4 °F 29.9 in Calm     85% 0 in 12 W/m2
19:35 68.7 °F 64 °F 29.9 in Calm     85% 0 in 9 W/m2
19:40 68.7 °F 64.4 °F 29.9 in Calm     86% 0 in 7 W/m2
19:45 68.4 °F 64 °F 29.9 in SE 0.9 mph 1 mph 86% 0 in 0 W/m2
19:50 68.2 °F 63.9 °F 29.9 in Calm     86% 0 in 0 W/m2
19:55 67.8 °F 63.9 °F 29.9 in Calm     87% 0 in 0 W/m2
20:00 67.6 °F 63.7 °F 29.9 in Calm     87% 0 in 0 W/m2
20:05 67.5 °F 63.9 °F 29.9 in Calm     88% 0 in 0 W/m2
20:10 67.3 °F 63.7 °F 29.9 in Calm     88% 0 in 0 W/m2
20:15 67.3 °F 63.7 °F 29.9 in Calm     88% 0 in 0 W/m2
20:20 66.9 °F 63.3 °F 29.9 in Calm     88% 0 in 0 W/m2
20:25 66.7 °F 63.3 °F 29.9 in Calm     89% 0 in 0 W/m2
20:30 66.7 °F 63.3 °F 29.9 in Calm     89% 0 in 0 W/m2
20:35 66.6 °F 63.1 °F 29.9 in Calm     89% 0 in 0 W/m2
20:40 66.4 °F 63.3 °F 29.9 in Calm     90% 0 in 0 W/m2
20:45 66 °F 63 °F 29.9 in Calm     90% 0 in 0 W/m2
20:50 66 °F 63 °F 29.9 in Calm     90% 0 in 0 W/m2
20:55 65.8 °F 63.1 °F 29.9 in Calm     91% 0 in 0 W/m2
21:00 65.7 °F 63 °F 29.9 in Calm     91% 0 in 0 W/m2
21:05 65.7 °F 63 °F 29.9 in Calm     91% 0 in 0 W/m2
21:10 65.7 °F 63 °F 29.9 in Calm     91% 0 in 0 W/m2
21:15 65.7 °F 63.3 °F 29.9 in Calm     92% 0 in 0 W/m2
21:20 65.5 °F 63.1 °F 29.9 in Calm     92% 0 in 0 W/m2
21:25 65.5 °F 63.1 °F 29.9 in Calm     92% 0 in 0 W/m2
21:30 65.5 °F 63.1 °F 29.9 in Calm     92% 0 in 0 W/m2
21:35 65.5 °F 63.1 °F 29.9 in Calm     92% 0 in 0 W/m2
21:40 65.3 °F 63 °F 29.9 in Calm     92% 0 in 0 W/m2
21:45 65.1 °F 63 °F 29.9 in Calm     93% 0 in 0 W/m2
21:50 65.1 °F 63 °F 29.9 in Calm     93% 0 in 0 W/m2
21:55 65.1 °F 63 °F 29.9 in Calm     93% 0 in 0 W/m2
22:00 65.1 °F 63 °F 29.9 in Calm     93% 0 in 0 W/m2
22:05 64.9 °F 62.8 °F 29.9 in Calm     93% 0 in 0 W/m2
22:10 64.9 °F 62.8 °F 29.9 in Calm     93% 0 in 0 W/m2
22:15 64.9 °F 62.8 °F 29.9 in Calm     93% 0 in 0 W/m2
22:20 64.8 °F 62.6 °F 29.9 in Calm     93% 0 in 0 W/m2
22:25 64.8 °F 62.6 °F 29.9 in Calm     93% 0 in 0 W/m2
22:30 64.8 °F 62.6 °F 29.9 in Calm     93% 0 in 0 W/m2
22:35 64.6 °F 62.4 °F 29.9 in Calm     93% 0 in 0 W/m2
22:40 64.6 °F 62.4 °F 29.9 in Calm     93% 0 in 0 W/m2
22:45 64.6 °F 62.8 °F 29.9 in Calm     94% 0 in 0 W/m2
22:50 64.6 °F 62.4 °F 29.9 in Calm     93% 0 in 0 W/m2
22:55 64.6 °F 62.8 °F 29.9 in Calm     94% 0 in 0 W/m2
23:00 64.6 °F 62.8 °F 29.9 in Calm     94% 0 in 0 W/m2
23:05 64.6 °F 62.8 °F 29.9 in Calm     94% 0 in 0 W/m2
23:10 64.6 °F 62.8 °F 29.9 in Calm     94% 0 in 0 W/m2
23:15 64.6 °F 62.8 °F 29.9 in Calm     94% 0 in 0 W/m2
23:20 64.6 °F 62.8 °F 29.9 in Calm     94% 0 in 0 W/m2
23:25 64.6 °F 62.8 °F 29.9 in Calm     94% 0 in 0 W/m2
23:30 64.6 °F 62.8 °F 29.9 in Calm     94% 0 in 0 W/m2
23:35 64.4 °F 62.6 °F 29.9 in Calm     94% 0 in 0 W/m2
23:41 64.4 °F 62.6 °F 29.9 in Calm     94% 0 in 0 W/m2
23:46 64.2 °F 62.4 °F 29.9 in Calm     94% 0 in 0 W/m2
23:51 64.2 °F 62.4 °F 29.9 in Calm     94% 0 in 0 W/m2
23:56 64.2 °F 62.4 °F 29.9 in Calm     94% 0 in 0 W/m2
Juneau County Weather
Compliments of Weather Underground - 4 mb